Time;durP1;ratioP1;P1;durP2;ratioP2;P2;SDS_P1;SDS_P2;PMS_P1;PMS_P2;Temp;Humidity;BMP_temperature;BMP_pressure;BME280_temperature;BME280_humidity;BME280_pressure;Samples;Min_cycle;Max_cycle;Signal;HPM_P1;HPM_P2
2021/04/02 00:00:56;;;;;;;39.67;25.45;;;13.70;42.50;;;;;;6275396;22;20165;-82
2021/04/02 00:03:24;;;;;;;35.60;24.55;;;13.80;42.00;;;;;;6275035;22;20158;-85
2021/04/02 00:05:53;;;;;;;36.08;23.77;;;13.70;42.00;;;;;;6275356;22;20173;-85
2021/04/02 00:08:20;;;;;;;36.40;24.10;;;13.70;42.50;;;;;;6275117;22;20169;-83
2021/04/02 00:10:50;;;;;;;32.78;22.50;;;13.60;42.90;;;;;;6275119;22;20188;-82
2021/04/02 00:13:18;;;;;;;33.15;20.95;;;13.60;42.90;;;;;;6275238;22;20154;-84
2021/04/02 01:00:07;;;;;;;12.95;9.57;;;12.50;43.30;;;;;;6245743;22;20200;-81
2021/04/02 01:02:33;;;;;;;16.40;8.85;;;12.50;42.80;;;;;;6284344;22;20312;-81
2021/04/02 01:05:01;;;;;;;16.02;9.65;;;12.50;43.00;;;;;;6282057;22;20185;-82
2021/04/02 01:07:27;;;;;;;12.35;8.30;;;12.40;43.10;;;;;;6281186;22;20173;-80
2021/04/02 01:09:54;;;;;;;14.02;8.25;;;12.30;43.00;;;;;;6266764;22;20208;-80
2021/04/02 01:12:20;;;;;;;12.73;8.15;;;12.30;42.70;;;;;;6267940;22;20188;-85
2021/04/02 01:14:46;;;;;;;13.90;7.40;;;12.20;42.40;;;;;;6299483;22;20173;-80
2021/04/02 01:17:14;;;;;;;12.70;7.57;;;12.10;42.50;;;;;;6283092;22;20177;-82
2021/04/02 01:19:44;;;;;;;9.05;6.65;;;12.00;42.20;;;;;;6285299;22;20193;-80
2021/04/02 01:22:15;;;;;;;11.15;7.32;;;11.90;41.30;;;;;;6286655;22;20646;-82
2021/04/02 01:25:09;;;;;;;11.73;6.53;;;11.90;41.30;;;;;;6254781;23;20174;-80
2021/04/02 01:27:51;;;;;;;7.53;5.88;;;11.80;41.20;;;;;;6255650;23;20192;-79
2021/04/02 01:30:19;;;;;;;11.35;6.20;;;11.80;41.20;;;;;;6251845;23;20611;-78
2021/04/02 01:32:48;;;;;;;9.38;5.38;;;11.70;41.10;;;;;;6250443;22;20709;-79
2021/04/02 01:35:18;;;;;;;8.00;4.85;;;11.70;39.40;;;;;;6250106;23;20182;-80
2021/04/02 01:37:48;;;;;;;5.22;4.45;;;11.60;39.10;;;;;;6247888;23;20216;-79
2021/04/02 01:40:17;;;;;;;6.85;4.20;;;11.50;38.10;;;;;;6247806;23;20183;-80
2021/04/02 01:42:44;;;;;;;5.75;4.53;;;11.50;37.20;;;;;;6257085;22;20205;-81
2021/04/02 01:45:14;;;;;;;7.00;4.72;;;11.50;37.30;;;;;;6259216;23;20181;-81
2021/04/02 01:47:41;;;;;;;7.38;5.10;;;11.40;36.90;;;;;;6259170;23;20208;-81
2021/04/02 01:50:12;;;;;;;5.20;4.70;;;11.30;36.80;;;;;;6260705;23;20178;-80
2021/04/02 01:52:40;;;;;;;8.30;3.63;;;11.20;36.60;;;;;;6257148;22;20213;-79
2021/04/02 01:55:08;;;;;;;6.35;3.50;;;11.20;35.80;;;;;;6260383;23;20181;-80
2021/04/02 01:57:36;;;;;;;7.03;3.78;;;11.20;36.00;;;;;;6258669;23;20397;-79
2021/04/02 02:00:09;;;;;;;6.15;3.65;;;11.10;36.00;;;;;;6259583;23;20474;-79
2021/04/02 02:02:35;;;;;;;6.32;3.85;;;11.00;36.30;;;;;;6263121;22;20186;-79
2021/04/02 02:05:06;;;;;;;6.70;4.13;;;11.00;36.30;;;;;;6264722;23;20188;-83
2021/04/02 02:07:33;;;;;;;10.98;4.03;;;10.90;36.30;;;;;;6263307;23;20167;-82
2021/04/02 02:09:59;;;;;;;7.20;4.13;;;10.90;36.50;;;;;;6262734;23;20178;-80
2021/04/02 02:12:26;;;;;;;4.50;4.10;;;10.80;36.90;;;;;;6257721;22;20193;-80
2021/04/02 02:14:56;;;;;;;6.80;3.95;;;10.70;37.20;;;;;;6255807;23;20250;-82
2021/04/02 02:17:25;;;;;;;6.68;4.07;;;10.70;37.60;;;;;;6258615;23;20201;-82
2021/04/02 02:19:51;;;;;;;5.25;3.80;;;10.60;37.20;;;;;;6260790;23;20212;-83
2021/04/02 02:22:20;;;;;;;6.97;3.80;;;10.60;37.10;;;;;;6259220;22;20174;-79
2021/04/02 02:24:47;;;;;;;7.07;3.75;;;10.50;36.90;;;;;;6252877;23;20177;-80
2021/04/02 02:27:13;;;;;;;4.55;3.30;;;10.40;37.00;;;;;;6254765;23;20182;-80
2021/04/02 02:29:40;;;;;;;6.65;3.75;;;10.40;36.40;;;;;;6255531;23;20178;-79
2021/04/02 02:32:08;;;;;;;6.85;3.92;;;10.30;36.60;;;;;;6251977;23;20208;-80
2021/04/02 02:34:35;;;;;;;8.10;4.22;;;10.30;36.80;;;;;;6251407;23;20199;-83
2021/04/02 02:37:02;;;;;;;4.22;3.78;;;10.20;37.10;;;;;;6249740;23;20177;-79
2021/04/02 02:39:29;;;;;;;8.95;4.93;;;10.10;36.90;;;;;;6249295;23;20605;-83
2021/04/02 02:41:56;;;;;;;4.30;3.70;;;10.10;37.00;;;;;;6249321;23;20182;-79
2021/04/02 02:44:23;;;;;;;5.57;3.33;;;10.00;35.90;;;;;;6256880;22;20225;-82
2021/04/02 02:46:50;;;;;;;8.50;3.50;;;10.00;35.60;;;;;;6261866;23;20174;-78
2021/04/02 02:49:19;;;;;;;5.03;3.78;;;9.90;36.10;;;;;;6256063;23;20178;-78
2021/04/02 02:51:48;;;;;;;9.90;4.47;;;9.90;36.00;;;;;;6254119;23;20182;-78
2021/04/02 02:54:17;;;;;;;5.50;3.25;;;9.80;36.60;;;;;;6252752;22;20250;-79
2021/04/02 02:56:47;;;;;;;7.30;4.03;;;9.70;35.90;;;;;;6262459;23;20181;-82
2021/04/02 02:59:18;;;;;;;9.57;3.90;;;9.60;35.70;;;;;;6270342;23;20201;-84
2021/04/02 03:01:45;;;;;;;7.28;3.40;;;9.60;35.60;;;;;;6269540;23;20173;-79
2021/04/02 03:04:13;;;;;;;6.05;3.58;;;9.50;35.70;;;;;;6251650;22;20260;-79
2021/04/02 03:06:41;;;;;;;3.70;3.30;;;9.40;35.50;;;;;;6255419;23;20206;-82
2021/04/02 03:09:09;;;;;;;3.28;2.97;;;9.40;35.80;;;;;;6267730;23;20174;-83
2021/04/02 03:11:37;;;;;;;5.93;3.70;;;9.30;36.10;;;;;;6267309;23;20196;-83
2021/04/02 03:14:06;;;;;;;7.07;4.03;;;9.20;36.00;;;;;;6266638;22;20212;-81
2021/04/02 03:16:33;;;;;;;5.80;4.40;;;9.20;36.00;;;;;;6266494;23;20181;-82
2021/04/02 03:19:01;;;;;;;6.95;3.83;;;9.10;36.20;;;;;;6260366;23;20194;-79
2021/04/02 03:21:30;;;;;;;10.85;4.53;;;9.10;36.50;;;;;;6248782;23;20194;-80
2021/04/02 03:23:57;;;;;;;10.55;4.50;;;9.00;36.80;;;;;;6247567;22;20269;-79
2021/04/02 03:26:24;;;;;;;7.47;4.35;;;8.90;36.60;;;;;;6248587;23;20186;-80
2021/04/02 03:28:52;;;;;;;5.22;3.42;;;8.80;36.80;;;;;;6249136;23;20515;-80
2021/04/02 03:31:21;;;;;;;5.90;3.80;;;8.70;37.00;;;;;;6247854;23;20193;-82
2021/04/02 03:33:52;;;;;;;6.10;4.05;;;8.60;37.30;;;;;;6248290;22;20193;-82
2021/04/02 03:36:23;;;;;;;8.23;3.78;;;8.50;37.70;;;;;;6248174;23;20166;-78
2021/04/02 03:38:51;;;;;;;6.85;4.10;;;8.40;37.80;;;;;;6249353;23;20343;-79
2021/04/02 03:41:22;;;;;;;4.63;3.90;;;8.40;38.60;;;;;;6245699;23;20484;-80
2021/04/02 03:43:50;;;;;;;6.72;4.07;;;8.30;39.00;;;;;;6246383;22;20213;-80
2021/04/02 03:46:20;;;;;;;6.95;3.90;;;8.20;38.90;;;;;;6246106;23;20182;-79
2021/04/02 03:48:49;;;;;;;8.63;4.25;;;8.10;38.80;;;;;;6245412;23;20209;-82
2021/04/02 03:51:20;;;;;;;6.53;3.92;;;8.10;38.80;;;;;;6253050;23;20174;-79
2021/04/02 03:53:49;;;;;;;11.52;3.75;;;8.00;38.80;;;;;;6250637;22;20202;-80
2021/04/02 03:56:18;;;;;;;9.73;4.68;;;8.00;38.80;;;;;;6247569;23;20182;-81
2021/04/02 03:58:46;;;;;;;6.03;4.38;;;7.90;39.10;;;;;;6247601;23;20190;-82
2021/04/02 04:01:16;;;;;;;5.60;4.25;;;7.80;39.50;;;;;;6247809;23;20205;-80
2021/04/02 04:03:47;;;;;;;7.05;4.32;;;7.80;39.60;;;;;;6247731;22;20324;-83
2021/04/02 04:06:17;;;;;;;9.23;5.05;;;7.80;39.80;;;;;;6247201;23;20177;-83
2021/04/02 04:08:45;;;;;;;4.63;4.10;;;7.70;40.20;;;;;;6247323;23;20213;-81
2021/04/02 04:11:13;;;;;;;5.75;4.55;;;7.60;40.40;;;;;;6247776;23;20174;-82
2021/04/02 04:13:42;;;;;;;8.60;4.45;;;7.60;40.60;;;;;;6244940;22;20209;-79
2021/04/02 04:16:11;;;;;;;8.15;4.55;;;7.60;41.10;;;;;;6244437;23;20193;-79
2021/04/02 04:18:38;;;;;;;6.97;4.32;;;7.50;41.10;;;;;;6244449;23;20505;-79
2021/04/02 04:21:07;;;;;;;8.50;4.90;;;7.60;41.10;;;;;;6246446;23;20213;-79
2021/04/02 04:23:36;;;;;;;7.30;4.68;;;7.50;41.50;;;;;;6245557;22;20202;-79
2021/04/02 04:26:04;;;;;;;6.47;4.22;;;7.40;41.80;;;;;;6248130;23;20185;-80
2021/04/02 04:28:32;;;;;;;10.00;4.97;;;7.30;42.10;;;;;;6247056;23;20285;-78
2021/04/02 04:31:02;;;;;;;10.73;4.70;;;7.30;42.00;;;;;;6245413;23;20178;-82
2021/04/02 04:33:30;;;;;;;7.47;4.65;;;7.30;42.30;;;;;;6246154;22;20202;-80
2021/04/02 04:35:59;;;;;;;7.15;4.82;;;7.20;42.70;;;;;;6246523;23;20272;-79
2021/04/02 04:38:29;;;;;;;7.50;4.90;;;7.10;42.90;;;;;;6246253;23;20181;-80
2021/04/02 04:40:57;;;;;;;9.32;5.15;;;7.20;43.00;;;;;;6245890;23;20189;-79
2021/04/02 04:43:24;;;;;;;8.60;5.15;;;7.10;43.80;;;;;;6253456;22;20204;-80
2021/04/02 04:45:51;;;;;;;7.30;5.07;;;7.00;43.50;;;;;;6269289;23;20186;-83
2021/04/02 04:48:17;;;;;;;7.50;5.00;;;7.00;44.00;;;;;;6264276;22;20166;-78
2021/04/02 04:50:44;;;;;;;8.82;5.97;;;6.90;44.10;;;;;;6247632;23;20243;-81
2021/04/02 04:53:16;;;;;;;6.55;4.70;;;6.80;45.00;;;;;;6250388;22;20194;-79
2021/04/02 04:55:44;;;;;;;6.57;4.40;;;6.70;45.10;;;;;;6255879;23;20170;-79
2021/04/02 04:58:13;;;;;;;10.60;5.80;;;6.70;45.50;;;;;;6248450;23;20186;-82
2021/04/02 05:00:44;;;;;;;7.57;4.90;;;6.60;45.60;;;;;;6259012;23;20190;-80
2021/04/02 05:03:15;;;;;;;12.90;6.10;;;6.60;46.40;;;;;;6263309;22;20259;-85
2021/04/02 05:05:44;;;;;;;7.95;6.00;;;6.60;46.70;;;;;;6271758;22;20174;-85
2021/04/02 05:08:15;;;;;;;6.93;4.63;;;6.60;46.70;;;;;;6271757;22;20193;-83
2021/04/02 05:10:44;;;;;;;9.93;6.03;;;6.60;47.30;;;;;;6272037;22;20170;-86
2021/04/02 05:13:13;;;;;;;11.50;5.88;;;6.60;47.20;;;;;;6268193;22;20261;-85
2021/04/02 05:15:40;;;;;;;12.02;5.55;;;6.60;47.30;;;;;;6270775;23;20181;-82
2021/04/02 05:18:08;;;;;;;7.97;5.55;;;6.60;47.20;;;;;;6264764;23;20182;-80
2021/04/02 05:20:40;;;;;;;10.52;5.97;;;6.50;47.20;;;;;;6260494;23;20194;-78
2021/04/02 05:23:06;;;;;;;10.02;6.05;;;6.50;47.20;;;;;;6254491;22;20291;-83
2021/04/02 05:25:33;;;;;;;10.35;6.13;;;6.50;47.20;;;;;;6255763;23;20182;-79
2021/04/02 05:28:00;;;;;;;9.82;5.90;;;6.50;47.90;;;;;;6255782;23;20236;-79
2021/04/02 05:30:27;;;;;;;8.73;5.70;;;6.50;48.20;;;;;;6256286;23;20177;-81
2021/04/02 05:32:54;;;;;;;9.15;5.70;;;6.70;47.40;;;;;;6255714;22;20193;-80
2021/04/02 05:35:20;;;;;;;10.40;6.05;;;7.00;47.60;;;;;;6255242;23;20182;-80
2021/04/02 05:37:47;;;;;;;11.63;5.88;;;7.40;45.90;;;;;;6250260;23;20200;-81
2021/04/02 05:40:15;;;;;;;8.32;5.35;;;7.70;44.90;;;;;;6252528;23;20198;-81
2021/04/02 05:42:46;;;;;;;7.10;4.78;;;7.90;43.30;;;;;;6248907;22;20205;-79
2021/04/02 05:45:15;;;;;;;10.88;6.18;;;7.90;43.20;;;;;;6247765;23;20204;-83
2021/04/02 05:47:44;;;;;;;7.18;4.95;;;8.10;42.70;;;;;;6247737;23;20225;-80
2021/04/02 05:50:12;;;;;;;6.53;4.40;;;8.30;41.60;;;;;;6247965;23;20763;-82
2021/04/02 05:52:41;;;;;;;8.45;5.55;;;8.40;41.50;;;;;;6254360;22;20565;-79
2021/04/02 05:55:12;;;;;;;8.68;5.32;;;8.50;41.10;;;;;;6252614;23;20188;-80
2021/04/02 05:57:39;;;;;;;7.57;5.70;;;8.50;41.00;;;;;;6248972;23;20182;-78
2021/04/02 06:00:06;;;;;;;8.38;4.95;;;8.50;40.80;;;;;;6248836;23;20529;-81
2021/04/02 06:02:34;;;;;;;7.43;5.43;;;8.40;41.40;;;;;;6246594;22;20198;-78
2021/04/02 06:05:01;;;;;;;12.88;5.57;;;8.10;42.10;;;;;;6246176;23;20170;-80
2021/04/02 06:07:28;;;;;;;8.23;6.68;;;7.70;43.40;;;;;;6252177;23;20170;-83
2021/04/02 06:09:55;;;;;;;9.85;6.32;;;7.70;44.20;;;;;;6253339;23;20462;-79
2021/04/02 06:12:24;;;;;;;9.80;6.55;;;7.60;44.70;;;;;;6251210;22;20541;-80
2021/04/02 06:14:51;;;;;;;8.70;6.90;;;7.40;45.40;;;;;;6254506;23;20154;-83
2021/04/02 06:17:20;;;;;;;9.15;6.53;;;7.30;46.00;;;;;;6250734;23;20193;-78
2021/04/02 06:20:04;;;;;;;10.60;6.07;;;7.30;46.70;;;;;;6249229;23;20217;-79
2021/04/02 06:22:30;;;;;;;8.07;5.97;;;7.20;47.20;;;;;;6249485;22;20201;-79
2021/04/02 06:25:03;;;;;;;8.77;6.95;;;7.10;47.70;;;;;;6249491;23;20174;-78
2021/04/02 06:27:31;;;;;;;9.80;6.68;;;7.00;47.60;;;;;;6247559;23;20198;-79
2021/04/02 06:30:02;;;;;;;13.23;7.25;;;7.00;47.60;;;;;;6246276;23;20178;-79
2021/04/02 06:32:34;;;;;;;10.07;7.50;;;7.10;47.70;;;;;;6252409;22;20715;-78
2021/04/02 06:35:07;;;;;;;10.20;7.00;;;7.10;47.70;;;;;;6252785;23;20181;-79
2021/04/02 06:37:34;;;;;;;11.30;7.45;;;7.20;47.80;;;;;;6260792;23;20220;-82
2021/04/02 06:40:00;;;;;;;9.75;6.80;;;7.20;47.80;;;;;;6259452;23;20194;-82
2021/04/02 06:42:28;;;;;;;10.02;7.63;;;7.30;47.90;;;;;;6251154;22;20210;-80
2021/04/02 06:44:58;;;;;;;12.00;7.47;;;7.30;47.90;;;;;;6252070;23;20265;-79
2021/04/02 06:47:32;;;;;;;9.57;7.10;;;7.30;47.90;;;;;;6253125;23;20173;-81
2021/04/02 06:49:59;;;;;;;11.10;7.07;;;7.40;48.00;;;;;;6256009;23;20162;-80
2021/04/02 06:52:26;;;;;;;10.95;7.88;;;7.50;48.10;;;;;;6255456;22;20202;-81
2021/04/02 06:54:54;;;;;;;11.43;8.38;;;7.50;48.10;;;;;;6251175;23;20174;-80
2021/04/02 06:57:23;;;;;;;10.05;7.55;;;7.60;48.10;;;;;;6251209;23;20202;-81
2021/04/02 06:59:53;;;;;;;10.73;6.50;;;7.60;47.40;;;;;;6252901;23;20273;-82
2021/04/02 07:02:24;;;;;;;10.63;7.57;;;7.70;46.90;;;;;;6251877;22;20604;-80
2021/04/02 07:04:54;;;;;;;10.82;7.43;;;7.80;47.00;;;;;;6253235;23;20173;-80
2021/04/02 07:07:21;;;;;;;10.40;7.93;;;7.90;46.70;;;;;;6252031;23;20201;-81
2021/04/02 07:09:54;;;;;;;10.68;7.38;;;8.00;47.00;;;;;;6252583;23;20178;-79
2021/04/02 07:12:20;;;;;;;12.57;7.75;;;7.90;46.30;;;;;;6250725;22;20158;-81
2021/04/02 07:14:48;;;;;;;11.27;8.35;;;7.90;45.50;;;;;;6246406;23;20213;-78
2021/04/02 07:17:15;;;;;;;11.60;7.80;;;8.00;45.10;;;;;;6250203;23;20269;-79
2021/04/02 07:19:43;;;;;;;10.80;7.93;;;8.10;45.10;;;;;;6262677;23;20229;-82
2021/04/02 07:22:10;;;;;;;10.52;7.72;;;8.20;44.30;;;;;;6263179;22;20189;-81
2021/04/02 07:24:37;;;;;;;12.23;8.52;;;8.30;44.10;;;;;;6268773;23;20182;-80
2021/04/02 07:27:05;;;;;;;11.38;7.80;;;8.40;44.00;;;;;;6262563;23;20174;-79
2021/04/02 07:29:31;;;;;;;11.50;7.70;;;8.60;43.50;;;;;;6259014;23;20467;-79
2021/04/02 07:31:58;;;;;;;13.95;8.40;;;8.70;42.30;;;;;;6265105;23;20182;-79
2021/04/02 07:34:25;;;;;;;11.57;7.25;;;8.70;41.70;;;;;;6261548;22;20194;-81
2021/04/02 07:36:52;;;;;;;8.90;7.10;;;8.90;41.60;;;;;;6261844;23;20208;-81
2021/04/02 07:39:20;;;;;;;9.80;7.30;;;8.80;41.80;;;;;;6252244;23;20210;-79
2021/04/02 07:41:49;;;;;;;10.82;7.50;;;8.80;41.30;;;;;;6247490;23;20277;-80
2021/04/02 07:44:17;;;;;;;8.02;7.20;;;8.80;41.20;;;;;;6248106;22;20224;-79
2021/04/02 07:47:07;;;;;;;12.55;7.70;;;8.70;40.50;;;;;;6248187;23;20182;-79
2021/04/02 07:49:34;;;;;;;11.00;7.35;;;8.80;40.70;;;;;;6246503;23;20558;-78
2021/04/02 07:52:01;;;;;;;9.30;6.93;;;8.80;41.60;;;;;;6248600;23;20244;-79
2021/04/02 07:54:32;;;;;;;9.35;7.95;;;8.80;41.10;;;;;;6249447;22;20198;-80
2021/04/02 07:57:05;;;;;;;11.55;7.93;;;9.00;40.40;;;;;;6244887;23;20185;-79
2021/04/02 07:59:36;;;;;;;10.60;7.78;;;9.10;39.70;;;;;;6245033;23;20182;-79
2021/04/02 08:02:04;;;;;;;12.90;7.32;;;9.20;39.80;;;;;;6247270;23;20232;-80
2021/04/02 08:04:39;;;;;;;11.77;8.48;;;9.40;40.00;;;;;;6247712;22;20201;-79
2021/04/02 08:07:09;;;;;;;10.32;7.80;;;9.50;40.10;;;;;;6265098;23;20199;-80
2021/04/02 08:09:41;;;;;;;10.38;7.88;;;9.60;40.20;;;;;;6254829;23;20150;-77
2021/04/02 08:12:11;;;;;;;13.27;8.23;;;9.70;39.20;;;;;;6264522;22;20185;-83
2021/04/02 08:14:39;;;;;;;10.85;7.80;;;9.70;39.50;;;;;;6270676;22;20182;-83
2021/04/02 08:17:13;;;;;;;8.52;6.82;;;9.50;39.60;;;;;;6257153;23;20209;-80
2021/04/02 08:19:41;;;;;;;9.95;7.80;;;9.60;39.60;;;;;;6253172;23;20312;-81
2021/04/02 08:22:12;;;;;;;9.93;7.80;;;9.60;39.70;;;;;;6249914;23;20232;-79
2021/04/02 08:24:40;;;;;;;9.15;7.25;;;9.60;39.50;;;;;;6250474;23;20173;-84
2021/04/02 08:27:08;;;;;;;13.30;7.90;;;9.70;38.60;;;;;;6255512;23;20185;-80
2021/04/02 08:29:36;;;;;;;10.40;8.40;;;9.70;39.10;;;;;;6258084;23;20185;-80
2021/04/02 08:32:06;;;;;;;10.43;7.60;;;9.80;38.70;;;;;;6254351;23;20193;-78
2021/04/02 08:34:34;;;;;;;10.60;8.15;;;10.00;37.50;;;;;;6253395;22;20198;-78
2021/04/02 08:37:03;;;;;;;14.00;8.45;;;10.10;37.10;;;;;;6253481;23;20178;-78
2021/04/02 08:39:31;;;;;;;9.80;7.93;;;10.10;36.80;;;;;;6255377;23;20197;-82
2021/04/02 08:42:01;;;;;;;8.43;7.13;;;10.00;37.10;;;;;;6251917;23;20177;-83
2021/04/02 08:44:32;;;;;;;11.48;7.80;;;10.30;36.70;;;;;;6252497;22;20200;-83
2021/04/02 08:47:00;;;;;;;10.52;7.78;;;10.50;36.10;;;;;;6252969;23;20350;-80
2021/04/02 08:49:35;;;;;;;8.90;7.70;;;10.80;35.50;;;;;;6256973;23;20178;-79
2021/04/02 08:52:06;;;;;;;8.10;7.03;;;10.90;34.40;;;;;;6257729;23;20181;-82
2021/04/02 08:54:32;;;;;;;10.43;8.50;;;10.80;34.60;;;;;;6259966;22;20205;-82
2021/04/02 08:56:59;;;;;;;11.43;7.38;;;11.00;34.20;;;;;;6260522;23;20181;-79
2021/04/02 08:59:29;;;;;;;10.63;7.70;;;10.70;34.90;;;;;;6262200;23;20220;-79
2021/04/02 09:01:56;;;;;;;10.70;8.25;;;10.80;34.60;;;;;;6254988;23;20199;-82
2021/04/02 09:04:23;;;;;;;12.02;7.60;;;11.00;34.30;;;;;;6258068;22;20197;-80
2021/04/02 09:06:51;;;;;;;10.02;8.50;;;11.30;33.30;;;;;;6255316;23;20196;-79
2021/04/02 09:09:19;;;;;;;14.32;8.35;;;11.30;33.40;;;;;;6250316;23;20189;-78
2021/04/02 09:11:47;;;;;;;11.90;7.95;;;11.20;33.40;;;;;;6251362;23;20184;-79
2021/04/02 09:14:14;;;;;;;9.48;8.25;;;11.30;33.50;;;;;;6255044;22;20216;-81
2021/04/02 09:16:43;;;;;;;7.68;6.88;;;11.60;32.80;;;;;;6254836;23;20181;-80
2021/04/02 09:19:10;;;;;;;10.15;8.18;;;11.70;32.10;;;;;;6259987;23;20182;-79
2021/04/02 09:21:37;;;;;;;10.02;8.20;;;11.90;32.90;;;;;;6258160;23;20174;-80
2021/04/02 09:24:05;;;;;;;11.73;8.75;;;11.60;32.80;;;;;;6253655;22;20276;-79
2021/04/02 09:26:36;;;;;;;14.35;8.18;;;11.60;32.50;;;;;;6256211;23;20185;-78
2021/04/02 09:29:04;;;;;;;8.95;7.88;;;11.70;32.50;;;;;;6254429;23;20158;-79
2021/04/02 09:31:33;;;;;;;15.63;8.50;;;11.70;31.30;;;;;;6255050;23;20174;-79
2021/04/02 09:34:01;;;;;;;9.40;8.40;;;11.40;31.90;;;;;;6253086;22;20659;-79
2021/04/02 09:36:30;;;;;;;8.82;7.93;;;11.00;33.20;;;;;;6255776;23;20193;-78
2021/04/02 09:39:09;;;;;;;10.82;8.52;;;11.00;33.10;;;;;;6258887;23;20174;-81
2021/04/02 09:41:38;;;;;;;10.13;8.25;;;11.40;32.50;;;;;;6269147;23;20170;-84
2021/04/02 09:44:09;;;;;;;11.15;8.45;;;11.40;32.70;;;;;;6269427;22;20245;-83
2021/04/02 09:46:39;;;;;;;11.20;7.10;;;11.60;31.50;;;;;;6270394;22;20161;-79
2021/04/02 09:49:08;;;;;;;9.38;7.85;;;11.60;30.90;;;;;;6270208;23;20182;-79
2021/04/02 09:51:37;;;;;;;8.63;6.88;;;11.70;31.00;;;;;;6268985;23;20182;-84
2021/04/02 09:54:03;;;;;;;8.68;7.88;;;11.80;29.80;;;;;;6256113;22;20591;-79
2021/04/02 09:56:32;;;;;;;10.23;7.90;;;12.00;29.60;;;;;;6248894;23;20648;-79
2021/04/02 09:58:59;;;;;;;9.35;8.15;;;12.00;29.20;;;;;;6252284;23;20858;-79
2021/04/02 10:01:26;;;;;;;13.38;8.50;;;12.40;29.00;;;;;;6257552;23;20182;-83
2021/04/02 10:03:52;;;;;;;7.80;6.93;;;12.70;28.90;;;;;;6255033;22;20671;-79
2021/04/02 10:06:19;;;;;;;9.95;7.63;;;12.70;28.90;;;;;;6253837;23;20190;-79
2021/04/02 10:08:45;;;;;;;9.95;7.38;;;12.30;29.90;;;;;;6255173;23;20188;-83
2021/04/02 10:11:12;;;;;;;10.73;7.72;;;11.70;31.00;;;;;;6255968;23;20722;-81
2021/04/02 10:13:39;;;;;;;9.85;8.63;;;11.70;31.00;;;;;;6252206;22;20209;-80
2021/04/02 10:16:06;;;;;;;9.95;7.95;;;11.80;30.70;;;;;;6254954;23;20517;-83
2021/04/02 10:18:33;;;;;;;9.20;8.02;;;12.30;29.00;;;;;;6254491;23;20193;-80
2021/04/02 10:20:59;;;;;;;9.38;7.80;;;12.50;28.10;;;;;;6258739;23;20204;-80
2021/04/02 10:23:26;;;;;;;9.68;8.25;;;12.50;28.50;;;;;;6261029;22;20197;-82
2021/04/02 10:25:52;;;;;;;9.55;8.05;;;12.30;28.30;;;;;;6262040;23;20178;-81
2021/04/02 10:28:20;;;;;;;8.45;7.65;;;12.40;28.20;;;;;;6258193;23;20632;-80
2021/04/02 10:30:48;;;;;;;10.77;8.50;;;12.30;28.40;;;;;;6256620;23;20193;-80
2021/04/02 10:33:15;;;;;;;8.43;7.55;;;12.40;28.20;;;;;;6258416;22;20224;-80
2021/04/02 10:35:41;;;;;;;8.50;7.50;;;12.50;28.10;;;;;;6254989;23;20178;-80
2021/04/02 10:38:08;;;;;;;8.90;7.53;;;12.80;27.60;;;;;;6250017;23;20181;-79
2021/04/02 10:40:34;;;;;;;11.75;7.82;;;13.30;26.40;;;;;;6251033;23;20568;-79
2021/04/02 10:43:01;;;;;;;9.02;7.75;;;13.10;26.40;;;;;;6251281;22;20209;-80
2021/04/02 10:45:28;;;;;;;8.90;8.00;;;12.60;28.00;;;;;;6253206;23;20178;-79
2021/04/02 10:47:55;;;;;;;10.93;7.07;;;12.50;27.70;;;;;;6253273;23;20174;-79
2021/04/02 10:50:22;;;;;;;9.40;8.15;;;12.50;27.50;;;;;;6254901;23;20185;-80
2021/04/02 10:52:49;;;;;;;8.90;7.90;;;12.20;27.80;;;;;;6250633;22;20202;-80
2021/04/02 10:55:16;;;;;;;8.80;7.63;;;12.00;27.50;;;;;;6249923;23;20209;-80
2021/04/02 10:57:42;;;;;;;8.20;7.40;;;12.20;27.10;;;;;;6249153;23;20221;-81
2021/04/02 11:00:11;;;;;;;8.02;7.22;;;12.00;27.20;;;;;;6249870;23;20190;-82
2021/04/02 11:02:38;;;;;;;8.35;7.47;;;12.30;27.10;;;;;;6261103;22;20236;-82
2021/04/02 11:05:09;;;;;;;8.55;7.68;;;12.90;26.50;;;;;;6266850;23;20177;-80
2021/04/02 11:07:36;;;;;;;9.68;8.68;;;12.90;26.80;;;;;;6263910;23;20159;-81
2021/04/02 11:10:03;;;;;;;9.85;7.65;;;12.90;27.10;;;;;;6252156;23;20182;-79
2021/04/02 11:12:30;;;;;;;8.02;6.93;;;13.00;27.10;;;;;;6249982;22;20706;-83
2021/04/02 11:14:57;;;;;;;8.90;8.00;;;13.10;26.70;;;;;;6252485;23;20178;-81
2021/04/02 11:17:24;;;;;;;8.95;8.05;;;13.00;26.50;;;;;;6253020;23;20476;-79
2021/04/02 11:19:51;;;;;;;10.10;7.55;;;12.90;26.80;;;;;;6256446;23;20208;-82
2021/04/02 11:22:19;;;;;;;8.38;7.05;;;13.00;26.40;;;;;;6255491;22;20182;-80
2021/04/02 11:24:45;;;;;;;9.85;7.03;;;13.10;26.20;;;;;;6253841;23;20184;-79
2021/04/02 11:27:12;;;;;;;9.02;7.88;;;13.20;25.90;;;;;;6253351;23;20704;-81
2021/04/02 11:29:39;;;;;;;10.98;7.90;;;13.40;25.20;;;;;;6251849;23;20181;-83
2021/04/02 11:32:07;;;;;;;9.00;7.30;;;13.40;25.30;;;;;;6257817;23;20181;-80
2021/04/02 11:34:34;;;;;;;8.80;7.60;;;13.20;25.80;;;;;;6261612;23;20229;-80
2021/04/02 11:37:01;;;;;;;9.93;7.30;;;13.20;25.90;;;;;;6257474;23;20251;-83
2021/04/02 11:39:28;;;;;;;9.70;8.48;;;13.40;25.40;;;;;;6255531;23;20217;-81
2021/04/02 11:41:55;;;;;;;8.63;7.72;;;13.20;25.60;;;;;;6253547;23;20494;-79
2021/04/02 11:44:21;;;;;;;8.93;7.75;;;13.10;25.80;;;;;;6253427;22;20205;-81
2021/04/02 11:46:49;;;;;;;9.80;7.93;;;13.10;25.40;;;;;;6256947;23;20201;-80
2021/04/02 11:49:15;;;;;;;8.35;7.45;;;13.20;24.60;;;;;;6252953;23;20251;-82
2021/04/02 11:51:42;;;;;;;10.65;8.10;;;13.30;24.60;;;;;;6250171;23;20185;-79
2021/04/02 11:54:08;;;;;;;8.80;7.60;;;13.10;25.60;;;;;;6250072;22;20194;-81
2021/04/02 11:56:36;;;;;;;9.70;8.80;;;13.10;25.90;;;;;;6250187;23;20193;-79
2021/04/02 11:59:02;;;;;;;11.00;7.32;;;13.20;25.70;;;;;;6252128;23;20208;-80
2021/04/02 12:01:29;;;;;;;13.07;8.07;;;13.30;25.60;;;;;;6250547;23;20647;-80
2021/04/02 12:03:55;;;;;;;8.10;7.10;;;13.20;25.60;;;;;;6247211;22;20273;-82
2021/04/02 12:06:22;;;;;;;8.80;8.00;;;13.20;26.20;;;;;;6248158;23;20691;-79
2021/04/02 12:08:48;;;;;;;8.15;7.35;;;13.20;25.40;;;;;;6249981;23;20252;-79
2021/04/02 12:11:15;;;;;;;10.30;7.60;;;13.30;25.60;;;;;;6256391;23;20201;-81
2021/04/02 12:13:42;;;;;;;10.45;7.78;;;13.50;24.80;;;;;;6267861;22;20206;-84
2021/04/02 12:16:09;;;;;;;8.10;7.30;;;13.60;24.30;;;;;;6268663;23;20165;-84
2021/04/02 12:18:35;;;;;;;10.60;8.57;;;13.50;24.40;;;;;;6268830;23;20181;-86
2021/04/02 12:21:02;;;;;;;17.27;8.10;;;13.50;24.20;;;;;;6271307;22;20221;-80
2021/04/02 12:23:28;;;;;;;8.40;7.50;;;12.90;25.50;;;;;;6263206;22;20216;-82
2021/04/02 12:25:55;;;;;;;8.27;6.63;;;13.00;25.60;;;;;;6251400;23;20174;-79
2021/04/02 12:28:21;;;;;;;7.95;6.95;;;13.60;24.30;;;;;;6253213;23;20201;-80
2021/04/02 12:30:49;;;;;;;8.60;7.70;;;14.00;24.60;;;;;;6252160;23;20182;-79
2021/04/02 12:33:15;;;;;;;7.53;6.72;;;14.20;24.50;;;;;;6252795;22;20202;-80
2021/04/02 12:35:42;;;;;;;8.25;7.43;;;14.10;24.00;;;;;;6252524;23;20644;-79
2021/04/02 12:38:09;;;;;;;9.02;7.05;;;14.30;23.50;;;;;;6255577;23;20188;-82
2021/04/02 12:40:36;;;;;;;8.48;7.68;;;14.40;23.70;;;;;;6253811;23;20213;-80
2021/04/02 12:43:03;;;;;;;8.90;7.97;;;14.40;23.00;;;;;;6259022;22;20690;-86
2021/04/02 12:45:30;;;;;;;8.07;7.28;;;13.70;24.40;;;;;;6270823;22;20177;-84
2021/04/02 12:47:58;;;;;;;7.97;7.18;;;13.80;24.40;;;;;;6268204;23;20177;-80
2021/04/02 12:50:26;;;;;;;7.93;7.10;;;13.90;24.50;;;;;;6262434;23;20180;-82
2021/04/02 12:55:43;;;;;;;10.00;7.07;;;13.90;23.80;;;;;;6237859;23;20235;-84
2021/04/02 12:58:10;;;;;;;9.88;7.40;;;13.90;24.10;;;;;;6237841;23;20182;-82
2021/04/02 13:00:36;;;;;;;9.35;7.97;;;13.80;24.40;;;;;;6229285;23;20194;-80
2021/04/02 13:03:04;;;;;;;8.38;7.47;;;13.70;24.40;;;;;;6235024;23;20672;-79
2021/04/02 13:05:30;;;;;;;8.07;7.30;;;13.80;24.40;;;;;;6252677;23;20182;-80
2021/04/02 13:07:57;;;;;;;11.85;7.90;;;13.70;24.40;;;;;;6280459;22;20216;-84
2021/04/02 13:10:25;;;;;;;7.55;6.78;;;13.90;23.80;;;;;;6295636;22;20157;-83
2021/04/02 13:12:58;;;;;;;7.70;6.90;;;14.10;23.60;;;;;;6304300;22;20225;-82
2021/04/02 13:15:31;;;;;;;7.88;6.88;;;14.20;23.20;;;;;;6298781;22;20173;-86
2021/04/02 13:18:04;;;;;;;8.27;7.00;;;14.00;23.20;;;;;;6269166;22;20453;-85
2021/04/02 13:20:35;;;;;;;9.35;8.35;;;14.00;23.40;;;;;;6258546;23;20194;-84
2021/04/02 13:23:07;;;;;;;8.48;7.45;;;14.00;23.10;;;;;;6259344;23;20242;-83
2021/04/02 13:25:46;;;;;;;9.43;6.90;;;13.90;23.00;;;;;;6260647;23;20553;-83
2021/04/02 13:28:24;;;;;;;9.20;7.32;;;13.80;23.40;;;;;;6262694;22;20201;-83
2021/04/02 13:30:51;;;;;;;7.47;6.65;;;13.90;23.10;;;;;;6265232;23;20173;-84
2021/04/02 13:33:19;;;;;;;6.80;6.10;;;14.00;23.00;;;;;;6268302;22;20186;-84
2021/04/02 13:35:45;;;;;;;9.82;6.57;;;14.00;23.40;;;;;;6267844;22;20207;-84
2021/04/02 13:38:12;;;;;;;8.88;6.93;;;14.20;22.70;;;;;;6268374;22;20198;-83
2021/04/02 13:40:39;;;;;;;6.93;6.22;;;14.30;22.10;;;;;;6269623;22;20201;-83